Angelina County Airport
KLFK : now visible

Airfield :











YOU CAN JOIN US ON...

 
LOGIN :

Register | Disclaimer

   EN    FR    IT 

 









Legend :    VFR   Marginal VFR   IFR   Intensive IFR   Very Intensive IFR
Visi :
Ceiling :
>= 8 km
>= 3000ft
5 to 8 km
1000 to 3000 ft
1500m to 5 km
500 to 1000 ft
800 to 1500m
200 to 500 ft
< 800m
< 200 ft
Symbols :   Thunderstorms  Fog  Heavy snow  Heavy precipitations  Wind > 20 kt






- Airport Elevation : 296 ft


KLFK - Angelina County

CURRENT METAR :
  • 160700Z AUTO 07007KT 4SM RA BR FEW025 OVC030 15/14 A2990 RMK AO2 LTG DSNT ALQDS TSE0655 PRESFR P0002 T01500144

EXPIRED METARs :
  • 160653Z AUTO 00000KT 3SM +TSRA BR FEW024 OVC032 15/14 A2993 RMK AO2 LTG DSNT E-SW TSE05B17 SLP133 P0062 T01500144
  • 160633Z AUTO VRB03KT 1 3/4SM +TSRA BR BKN033 OVC060 15/14 A2994 RMK AO2 LTG DSNT E-SW TSE05B17 PRESRR P0043 T01500144
  • 160618Z AUTO 02005KT 3SM +TSRA BR SCT040 BKN060 OVC085 15/14 A2991 RMK AO2 LTG DSNT E AND SE AND W TSE05B17 P0022 T01500139
  • 160609Z AUTO 05009KT 2 1/2SM VCTS +RA BR BKN040 BKN070 OVC110 16/14 A2988 RMK AO2 LTG DSNT E AND SE AND W TSE05 P0017 T01560139
  • 160553Z AUTO 02005KT 8SM -TSRA FEW060 BKN085 OVC110 16/14 A2989 RMK AO2 LTG DSNT N AND W RAE18B38 TSB50 SLP119 P0003 60019 T01560144 10183 20156 401940144 55031
  • 160525Z AUTO 05007KT 10SM VCTS OVC090 16/15 A2989 RMK AO2 RAE18 P0000 T01610150
  • 160453Z AUTO 08006KT 10SM -RA FEW085 BKN120 16/15 A2989 RMK AO2 RAE21B50 SLP119 P0001 T01610150

TAF KLFK
Valid from the 16 at 07:00 until the 17 at 06:00 UTC


160639Z 1607/1706 07007KT P6SM VCTS OVC090CB
TEMPO 1607/1610 VRB10KT 2SM TSRA BR OVC030CB
FM161000 07004KT P6SM VCSH SCT008 BKN015
FM161500 08008KT P6SM VCTS OVC007CB
FM161800 11008KT 6SM -TSRA BR OVC007CB
FM170300 36004KT 6SM -SHRA BR OVC005
KZHU FIR / North America



MET'MAP, your aeronautical weather chart ! - Copyright ORBIFLY December 2007 - Disclaimer

ORBIFLY MET'MAP TEAM :

Programming & Development : Alexandra Zaïnal
Concept & original design : Baudouin d'Aumeries
Assistance for programming : Marc-Olivier Méhu
Technical & hardware support : Manuel Goepfert

Contact : metmap@orbifly.com




SOURCES & CREDITS :

   NOAA       Earth
Advisory